Impacts METAR Board
IDs:

KSAN - San Diego Intl Arpt, CA, US

Updated at: 1100 UTC 23 Jun 2018
Potential Impact None Slight Moderate High
Time 22/23Z 23/00Z 23/01Z 23/02Z 23/03Z 23/04Z 23/05Z 23/06Z 23/07Z 23/08Z 23/09Z 23/10Z 23/11Z
Temp73 71 70 68 67 67 66 66 65 64 64 64 63
Dewpt60 60 60 60 59 59 59 59 59 59 59 59 59
Altim29.84 29.84 29.83 29.84 29.84 29.85 29.86 29.86 29.85 29.84 29.84 29.83 29.82
VIS10 10 10 10 10 10 10 10 8 8 6 6 5
CIG-- -- 14 14 13 14 14 13 11 8 8 8 8
CoverFEWFEWBKNOVCOVCOVCOVCOVCOVCOVCOVCOVCOVC
FltCatVFRVFRMVFRMVFRMVFRMVFRMVFRMVFRMVFRIFRIFRIFRIFR
WX--------------------BRBRBR
WDir2902702902502903100220200240220240220
WSpd10 10 6 6 4 3 3 4 6 5 6 5 5
WGst-- -- -- -- -- -- -- -- -- -- -- -- --
Raw hourly METARs
KSAN 222251Z 29010KT 10SM FEW015 23/16 A2984 RMK AO2 SLP105 T02280156
KSAN 222351Z 27010KT 10SM FEW014 22/16 A2984 RMK AO2 SLP103 T02170156 10239 20217 56010
KSAN 230051Z 29006KT 10SM BKN014 21/16 A2983 RMK AO2 SLP102 T02110156
KSAN 230151Z 25006KT 10SM OVC014 20/16 A2984 RMK AO2 SLP102 T02000156
KSAN 230251Z 29004KT 10SM OVC013 19/15 A2984 RMK AO2 SLP105 T01940150 53003
KSAN 230351Z 31003KT 10SM OVC014 19/15 A2985 RMK AO2 SLP109 T01940150
KSAN 230451Z VRB03KT 10SM OVC014 19/15 A2986 RMK AO2 SLP112 T01890150
KSAN 230551Z 22004KT 10SM OVC013 19/15 A2986 RMK AO2 SLP110 T01890150 10222 20183 50005
KSAN 230651Z 20006KT 8SM OVC011 18/15 A2985 RMK AO2 SLP109 T01830150
KSAN 230751Z 24005KT 8SM OVC008 18/15 A2984 RMK AO2 SLP106 T01780150 402390178
KSAN 230851Z 22006KT 6SM BR OVC008 18/15 A2984 RMK AO2 SLP103 T01780150 58007
KSAN 230951Z 24005KT 6SM BR OVC008 18/15 A2983 RMK AO2 SLP100 T01780150
KSAN 231051Z 22005KT 5SM BR OVC008 17/15 A2982 RMK AO2 SLP098 T01720150



Page loaded:  11:38 UTC  |   04:38 AM Pacific  |   05:38 AM Mountain  |   06:38 AM Central  |   07:38 AM Eastern

 

ADVISORIES

FORECASTS

FORECASTS

OBSERVATIONS

USER TOOLS

ABOUT US